Time;durP1;ratioP1;P1;durP2;ratioP2;P2;SDS_P1;SDS_P2;PMS_P1;PMS_P2;Temp;Humidity;BMP_temperature;BMP_pressure;BME280_temperature;BME280_humidity;BME280_pressure;Samples;Min_cycle;Max_cycle;Signal;HPM_P1;HPM_P2
2022/07/11 00:00:24;;;;;;;3.10;1.30;;;19.10;99.90;;;;;;5054316;28;20037;-76
2022/07/11 00:02:51;;;;;;;2.92;2.25;;;19.00;99.90;;;;;;5054095;28;20044;-76
2022/07/11 00:05:18;;;;;;;2.20;1.60;;;19.00;99.90;;;;;;5052428;28;20044;-76
2022/07/11 00:07:47;;;;;;;3.75;1.60;;;19.00;99.90;;;;;;5054218;28;20483;-76
2022/07/11 00:10:14;;;;;;;2.80;1.50;;;19.00;99.90;;;;;;5053707;28;20059;-76
2022/07/11 00:12:42;;;;;;;4.38;1.42;;;18.90;99.90;;;;;;5052914;28;20048;-76
2022/07/11 00:15:09;;;;;;;2.17;1.48;;;18.90;99.90;;;;;;5054006;28;20052;-76
2022/07/11 00:17:38;;;;;;;3.55;1.63;;;18.80;99.90;;;;;;5052181;28;20045;-76
2022/07/11 00:20:05;;;;;;;3.45;1.40;;;18.80;99.90;;;;;;5052683;28;20049;-75
2022/07/11 00:22:32;;;;;;;8.30;1.55;;;18.80;99.90;;;;;;5051880;28;20120;-75
2022/07/11 00:24:59;;;;;;;3.22;1.50;;;18.70;99.90;;;;;;5052118;28;20388;-75
2022/07/11 00:27:26;;;;;;;2.70;1.50;;;18.70;99.90;;;;;;5053264;28;20388;-75
2022/07/11 00:29:53;;;;;;;2.30;1.13;;;18.70;99.90;;;;;;5056916;28;20163;-75
2022/07/11 00:32:20;;;;;;;1.88;1.35;;;18.60;99.90;;;;;;5058212;28;20053;-75
2022/07/11 00:34:47;;;;;;;2.70;1.30;;;18.60;99.90;;;;;;5057004;28;20044;-76
2022/07/11 00:37:14;;;;;;;3.28;1.70;;;18.60;99.90;;;;;;5056017;28;20052;-76
2022/07/11 00:39:41;;;;;;;2.42;1.70;;;18.50;99.90;;;;;;5057350;28;20056;-76
2022/07/11 00:42:08;;;;;;;2.53;1.30;;;18.50;99.90;;;;;;5055542;28;20044;-76
2022/07/11 00:44:36;;;;;;;3.60;1.63;;;18.40;99.90;;;;;;5056832;28;20040;-76
2022/07/11 00:47:03;;;;;;;2.50;1.58;;;18.40;99.90;;;;;;5056864;28;20140;-75
2022/07/11 00:49:30;;;;;;;1.65;1.13;;;18.40;99.90;;;;;;5055922;28;20045;-75
2022/07/11 00:51:57;;;;;;;2.55;1.58;;;18.40;99.90;;;;;;5055768;28;20041;-75
2022/07/11 00:54:24;;;;;;;3.17;1.45;;;18.30;99.90;;;;;;5055781;28;20052;-75
2022/07/11 00:56:51;;;;;;;4.00;1.30;;;18.30;99.90;;;;;;5039855;28;20067;-75
2022/07/11 00:59:19;;;;;;;2.10;1.45;;;18.20;99.90;;;;;;5055586;28;20055;-75
2022/07/11 01:01:46;;;;;;;2.47;1.50;;;18.20;99.90;;;;;;5056380;28;20049;-76
2022/07/11 01:04:13;;;;;;;2.25;1.60;;;18.20;99.90;;;;;;5056221;28;20063;-76
2022/07/11 01:06:40;;;;;;;2.65;1.35;;;18.20;99.90;;;;;;5056527;28;20133;-76
2022/07/11 01:09:07;;;;;;;2.03;1.50;;;18.20;99.90;;;;;;5055676;28;20468;-75
2022/07/11 01:11:34;;;;;;;3.67;1.50;;;18.10;99.90;;;;;;5056545;28;20049;-76
2022/07/11 01:14:01;;;;;;;2.65;1.65;;;18.10;99.90;;;;;;5056710;28;20484;-75
2022/07/11 01:16:28;;;;;;;1.67;1.20;;;18.00;99.90;;;;;;5057569;28;20416;-76
2022/07/11 01:18:55;;;;;;;2.10;1.40;;;18.00;99.90;;;;;;5056897;28;20095;-76
2022/07/11 01:21:39;;;;;;;2.22;1.33;;;18.00;99.90;;;;;;5056633;28;20045;-75
2022/07/11 01:24:06;;;;;;;3.15;1.95;;;17.90;99.90;;;;;;5056112;28;20095;-76
2022/07/11 01:26:33;;;;;;;2.20;1.40;;;17.90;99.90;;;;;;5056616;28;20067;-76
2022/07/11 01:29:08;;;;;;;4.47;1.70;;;17.80;99.90;;;;;;5056224;28;20044;-75
2022/07/11 01:31:35;;;;;;;1.83;1.33;;;17.80;99.90;;;;;;5054684;28;20048;-76
2022/07/11 01:34:02;;;;;;;1.98;1.30;;;17.80;99.90;;;;;;5056613;28;20080;-76
2022/07/11 01:36:29;;;;;;;2.42;1.55;;;17.70;99.90;;;;;;5055870;28;20052;-76
2022/07/11 01:38:56;;;;;;;3.28;1.48;;;17.70;99.90;;;;;;5056650;28;20052;-76
2022/07/11 01:41:23;;;;;;;3.55;1.52;;;17.70;99.90;;;;;;5054577;28;20081;-76
2022/07/11 01:43:50;;;;;;;2.05;1.40;;;17.70;99.90;;;;;;5055614;28;20114;-76
2022/07/11 01:46:18;;;;;;;2.42;1.60;;;17.70;99.90;;;;;;5038962;28;20044;-75
2022/07/11 01:48:45;;;;;;;7.70;2.10;;;17.70;99.90;;;;;;5056763;28;20045;-76
2022/07/11 01:51:12;;;;;;;3.00;1.77;;;17.60;99.90;;;;;;5055662;28;20481;-76
2022/07/11 01:53:39;;;;;;;8.23;1.80;;;17.60;99.90;;;;;;5054502;28;20075;-76
2022/07/11 01:56:06;;;;;;;2.47;1.73;;;17.50;99.90;;;;;;5055817;28;20422;-76
2022/07/11 01:58:53;;;;;;;4.70;2.08;;;17.50;99.90;;;;;;5056447;28;20045;-75
2022/07/11 02:01:20;;;;;;;2.30;1.65;;;17.40;99.90;;;;;;5055951;28;20045;-76
2022/07/11 02:03:48;;;;;;;3.03;1.67;;;17.40;99.90;;;;;;5054218;28;20048;-77
2022/07/11 02:06:14;;;;;;;3.65;1.50;;;17.40;99.90;;;;;;5054325;28;20067;-76
2022/07/11 02:08:41;;;;;;;2.00;1.45;;;17.30;99.90;;;;;;5056141;28;20044;-76
2022/07/11 02:11:08;;;;;;;3.58;2.10;;;17.30;99.90;;;;;;5054609;28;20048;-76
2022/07/11 02:13:35;;;;;;;2.60;1.50;;;17.30;99.90;;;;;;5056350;28;20044;-76
2022/07/11 02:16:02;;;;;;;5.15;1.60;;;17.20;99.90;;;;;;5055090;28;20037;-76
2022/07/11 02:18:29;;;;;;;1.75;1.50;;;17.20;99.90;;;;;;5054219;28;20041;-76
2022/07/11 02:20:56;;;;;;;3.38;1.45;;;17.20;99.90;;;;;;5054999;28;20048;-75
2022/07/11 02:23:23;;;;;;;2.50;1.60;;;17.10;99.90;;;;;;5055338;28;20041;-75
2022/07/11 02:25:51;;;;;;;3.95;2.28;;;17.10;99.90;;;;;;5038149;28;20041;-75
2022/07/11 02:28:18;;;;;;;2.40;1.90;;;17.10;99.90;;;;;;5038152;28;20049;-75
2022/07/11 02:30:48;;;;;;;4.00;1.92;;;17.10;99.90;;;;;;5054792;28;20473;-76
2022/07/11 02:33:18;;;;;;;3.53;1.50;;;17.00;99.90;;;;;;5053689;28;20059;-75
2022/07/11 02:35:46;;;;;;;2.35;1.60;;;17.00;99.90;;;;;;5054479;28;20103;-76
2022/07/11 02:38:14;;;;;;;2.50;1.65;;;16.90;99.90;;;;;;5053777;28;20041;-75
2022/07/11 02:40:42;;;;;;;2.50;1.77;;;16.90;99.90;;;;;;5054881;28;20115;-76
2022/07/11 02:43:09;;;;;;;2.50;1.58;;;16.90;99.90;;;;;;5053407;28;20055;-76
2022/07/11 02:45:36;;;;;;;2.95;1.80;;;16.80;99.90;;;;;;5053721;28;20428;-75
2022/07/11 02:48:03;;;;;;;3.13;1.70;;;16.80;99.90;;;;;;5054797;28;20049;-75
2022/07/11 02:50:31;;;;;;;2.53;1.50;;;16.80;99.90;;;;;;5054169;28;20052;-75
2022/07/11 02:52:58;;;;;;;1.95;1.50;;;16.80;99.90;;;;;;5053758;28;20064;-75
2022/07/11 02:55:25;;;;;;;1.95;1.55;;;16.80;99.90;;;;;;5052979;28;20041;-76
2022/07/11 02:57:52;;;;;;;2.00;1.40;;;16.70;99.90;;;;;;5054384;28;20044;-76
2022/07/11 03:00:19;;;;;;;2.45;1.63;;;16.70;99.90;;;;;;5054310;28;20484;-75
2022/07/11 03:02:46;;;;;;;2.38;1.70;;;16.70;99.90;;;;;;5053255;28;20041;-75
2022/07/11 03:05:13;;;;;;;2.47;1.73;;;16.60;99.90;;;;;;5054650;28;20056;-75
2022/07/11 03:07:40;;;;;;;3.45;1.70;;;16.60;99.90;;;;;;5054012;28;20048;-74
2022/07/11 03:10:07;;;;;;;2.75;1.73;;;16.60;99.90;;;;;;5053230;28;20044;-75
2022/07/11 03:12:34;;;;;;;2.80;2.10;;;16.60;99.90;;;;;;5037461;28;20049;-74
2022/07/11 03:15:01;;;;;;;2.38;1.50;;;16.50;99.90;;;;;;5052740;28;20044;-74
2022/07/11 03:17:29;;;;;;;1.73;1.48;;;16.50;99.90;;;;;;5052731;28;20060;-75
2022/07/11 03:19:57;;;;;;;1.80;1.60;;;16.50;99.90;;;;;;5053581;28;20118;-75
2022/07/11 03:22:24;;;;;;;2.45;1.50;;;16.50;99.90;;;;;;5055087;28;20056;-75
2022/07/11 03:24:51;;;;;;;2.60;2.17;;;16.40;99.90;;;;;;5053619;28;20048;-75
2022/07/11 03:27:18;;;;;;;2.08;1.60;;;16.40;99.90;;;;;;5054973;28;20369;-74
2022/07/11 03:29:46;;;;;;;2.20;1.60;;;16.40;99.90;;;;;;5054155;28;20053;-75
2022/07/11 03:32:13;;;;;;;2.33;1.60;;;16.40;99.90;;;;;;5054154;28;20059;-74
2022/07/11 03:34:40;;;;;;;4.15;1.77;;;16.40;99.90;;;;;;5054543;28;20049;-75
2022/07/11 03:37:07;;;;;;;3.45;2.13;;;16.30;99.90;;;;;;5054653;28;20045;-75
2022/07/11 03:39:33;;;;;;;2.00;1.65;;;16.30;99.90;;;;;;5054104;28;20531;-75
2022/07/11 03:42:01;;;;;;;3.28;1.70;;;16.30;99.90;;;;;;5052689;28;20052;-75
2022/07/11 03:44:28;;;;;;;4.18;1.73;;;16.30;99.90;;;;;;5054348;28;20358;-75
2022/07/11 03:46:55;;;;;;;2.67;1.92;;;16.30;99.90;;;;;;5052617;28;20041;-75
2022/07/11 03:49:22;;;;;;;3.08;1.73;;;16.30;99.90;;;;;;5054198;28;20045;-75
2022/07/11 03:51:50;;;;;;;2.88;1.80;;;16.20;99.90;;;;;;5053952;28;20045;-74
2022/07/11 03:54:17;;;;;;;2.38;1.80;;;16.20;99.90;;;;;;5052590;28;20143;-74
2022/07/11 03:56:44;;;;;;;3.33;1.70;;;16.20;99.90;;;;;;5053645;28;20148;-74
2022/07/11 03:59:10;;;;;;;4.88;2.65;;;16.10;99.90;;;;;;5054023;28;20041;-75
2022/07/11 04:01:37;;;;;;;3.22;1.80;;;16.10;99.90;;;;;;5053153;28;20110;-75
2022/07/11 04:04:08;;;;;;;4.72;2.25;;;16.20;99.90;;;;;;5053123;28;20487;-75
2022/07/11 04:06:44;;;;;;;3.55;2.00;;;16.20;99.90;;;;;;5054330;28;20144;-74
2022/07/11 04:09:10;;;;;;;3.50;1.80;;;16.10;99.90;;;;;;5036068;28;20048;-74
2022/07/11 04:11:39;;;;;;;2.90;1.80;;;16.20;99.90;;;;;;5053171;28;20049;-75
2022/07/11 04:14:06;;;;;;;4.13;2.40;;;16.20;99.90;;;;;;5052351;28;20077;-74
2022/07/11 04:16:33;;;;;;;2.47;1.80;;;16.20;99.90;;;;;;5053929;28;20048;-74
2022/07/11 04:19:00;;;;;;;2.60;1.75;;;16.20;99.90;;;;;;5053141;28;20041;-75
2022/07/11 04:21:26;;;;;;;2.83;1.77;;;16.20;99.90;;;;;;5053523;28;20041;-75
2022/07/11 04:23:53;;;;;;;4.10;2.00;;;16.20;99.90;;;;;;5052261;28;20094;-75
2022/07/11 04:26:20;;;;;;;5.00;1.90;;;16.20;99.90;;;;;;5053916;28;20051;-75
2022/07/11 04:28:47;;;;;;;2.53;1.65;;;16.20;99.90;;;;;;5053150;28;20041;-75
2022/07/11 04:31:14;;;;;;;2.83;1.77;;;16.20;99.90;;;;;;5053166;28;20048;-75
2022/07/11 04:33:41;;;;;;;4.38;1.90;;;16.20;99.90;;;;;;5051771;28;20170;-74
2022/07/11 04:36:08;;;;;;;3.38;1.60;;;16.20;99.90;;;;;;5052298;28;20366;-74
2022/07/11 04:38:35;;;;;;;3.65;1.77;;;16.20;99.90;;;;;;5053192;28;20067;-74
2022/07/11 04:41:02;;;;;;;3.25;2.20;;;16.30;99.90;;;;;;5054099;28;20048;-75
2022/07/11 04:43:29;;;;;;;3.25;2.38;;;16.30;99.90;;;;;;5053356;28;20071;-75
2022/07/11 04:45:57;;;;;;;3.28;1.90;;;16.30;99.90;;;;;;5053438;28;20095;-75
2022/07/11 04:48:26;;;;;;;3.35;2.38;;;16.40;99.90;;;;;;5052632;28;20057;-75
2022/07/11 04:50:53;;;;;;;2.92;1.90;;;16.70;99.90;;;;;;5051878;28;20072;-75
2022/07/11 04:53:20;;;;;;;2.80;1.98;;;17.10;99.90;;;;;;5053336;28;20408;-75
2022/07/11 04:55:47;;;;;;;4.63;1.92;;;17.70;99.90;;;;;;5053271;28;20063;-75
2022/07/11 04:58:14;;;;;;;3.40;2.47;;;18.40;99.90;;;;;;5052826;28;20041;-76
2022/07/11 05:00:41;;;;;;;3.28;1.77;;;19.00;99.90;;;;;;5052240;28;20457;-76
2022/07/11 05:03:12;;;;;;;2.70;2.13;;;19.60;99.90;;;;;;5052777;28;20503;-76
2022/07/11 05:05:39;;;;;;;2.80;1.90;;;20.20;99.90;;;;;;5051859;28;20044;-77
2022/07/11 05:08:06;;;;;;;2.22;1.67;;;20.70;99.90;;;;;;5051790;28;20041;-76
2022/07/11 05:10:36;;;;;;;2.50;1.60;;;21.30;99.90;;;;;;5052074;28;20041;-76
2022/07/11 05:13:03;;;;;;;2.42;1.60;;;21.70;99.90;;;;;;5053638;28;20389;-76
2022/07/11 05:15:30;;;;;;;3.38;2.20;;;22.20;99.90;;;;;;5055376;28;20053;-77
2022/07/11 05:17:56;;;;;;;3.40;1.67;;;22.70;99.90;;;;;;5057583;28;20044;-77
2022/07/11 05:20:23;;;;;;;4.63;2.47;;;23.20;99.90;;;;;;5056757;28;20056;-77
2022/07/11 05:22:50;;;;;;;3.42;1.88;;;23.60;99.90;;;;;;5056232;28;20376;-76
2022/07/11 05:25:17;;;;;;;5.88;1.80;;;24.10;99.00;;;;;;5057225;28;20048;-76
2022/07/11 05:27:47;;;;;;;2.47;1.77;;;24.50;96.70;;;;;;5056026;28;20045;-76
2022/07/11 05:30:13;;;;;;;4.45;1.85;;;24.80;95.20;;;;;;5056121;28;20037;-76
2022/07/11 05:32:40;;;;;;;7.25;1.73;;;25.10;93.30;;;;;;5055164;28;20049;-76
2022/07/11 05:35:08;;;;;;;4.75;1.77;;;25.20;92.50;;;;;;5056940;28;20049;-76
2022/07/11 05:37:35;;;;;;;2.75;1.83;;;25.40;90.90;;;;;;5054744;28;20127;-76
2022/07/11 05:40:02;;;;;;;6.32;3.70;;;25.50;90.50;;;;;;5054582;28;20041;-70
2022/07/11 05:42:32;;;;;;;54.45;49.30;;;25.70;90.10;;;;;;5054977;28;20045;-70
2022/07/11 05:44:59;;;;;;;8.82;7.95;;;25.80;87.00;;;;;;5054647;28;20128;-65
2022/07/11 05:47:26;;;;;;;6.70;3.75;;;26.00;84.90;;;;;;5054658;28;20048;-68
2022/07/11 05:49:56;;;;;;;3.55;2.13;;;26.10;84.60;;;;;;5056467;28;20112;-74
2022/07/11 05:52:23;;;;;;;3.22;2.35;;;25.90;82.10;;;;;;5055821;28;20484;-68
2022/07/11 05:54:50;;;;;;;3.80;2.10;;;25.80;82.50;;;;;;5055455;28;20049;-65
2022/07/11 05:57:17;;;;;;;2.72;1.85;;;25.60;83.40;;;;;;5054079;28;20045;-68
2022/07/11 05:59:45;;;;;;;3.97;2.20;;;25.40;84.60;;;;;;5055297;28;20080;-68
2022/07/11 06:02:12;;;;;;;4.82;2.05;;;25.30;85.20;;;;;;5055906;28;20047;-67
2022/07/11 06:04:42;;;;;;;19.45;16.80;;;25.20;85.80;;;;;;5056391;28;20122;-67
2022/07/11 06:07:09;;;;;;;8.45;5.15;;;25.00;86.50;;;;;;5070745;28;20068;-67
2022/07/11 06:09:36;;;;;;;52.78;48.15;;;25.00;85.50;;;;;;5055193;28;20040;-67
2022/07/11 06:12:03;;;;;;;10.75;9.65;;;24.90;86.10;;;;;;5055500;28;20499;-66
2022/07/11 06:14:30;;;;;;;3.97;2.83;;;24.90;86.80;;;;;;5054081;28;20084;-66
2022/07/11 06:16:57;;;;;;;4.63;2.10;;;24.80;86.80;;;;;;5054696;28;20049;-66
2022/07/11 06:19:24;;;;;;;3.53;2.35;;;24.80;87.20;;;;;;5056865;28;20420;-67
2022/07/11 06:21:52;;;;;;;8.93;2.42;;;24.70;87.20;;;;;;5055935;28;20056;-67
2022/07/11 06:24:19;;;;;;;4.18;1.98;;;24.60;87.80;;;;;;5056135;28;20049;-69
2022/07/11 06:26:46;;;;;;;3.28;2.03;;;24.60;87.20;;;;;;5056047;28;20045;-67
2022/07/11 06:29:13;;;;;;;3.88;1.70;;;24.40;87.60;;;;;;5057778;28;20059;-67
2022/07/11 06:31:41;;;;;;;3.83;1.85;;;24.30;88.60;;;;;;5056713;28;20119;-68
2022/07/11 06:34:08;;;;;;;4.25;2.15;;;24.20;89.10;;;;;;5054042;28;20041;-68
2022/07/11 06:36:35;;;;;;;4.22;2.40;;;24.30;89.90;;;;;;5054750;28;20055;-70
2022/07/11 06:39:01;;;;;;;5.72;2.35;;;24.30;90.30;;;;;;5055664;28;20048;-68
2022/07/11 06:41:29;;;;;;;3.10;1.98;;;24.40;90.10;;;;;;5054832;28;20075;-68
2022/07/11 06:43:55;;;;;;;2.88;1.48;;;24.50;89.60;;;;;;5055406;28;20052;-69
2022/07/11 06:46:22;;;;;;;3.15;1.80;;;24.50;89.30;;;;;;5036955;28;20052;-69
2022/07/11 06:48:49;;;;;;;3.78;1.95;;;24.60;88.90;;;;;;5054958;28;20052;-70
2022/07/11 06:51:16;;;;;;;2.00;1.65;;;24.60;89.60;;;;;;5054351;28;20044;-69
2022/07/11 06:53:43;;;;;;;3.58;1.70;;;24.70;89.40;;;;;;5053262;28;20045;-69
2022/07/11 06:56:11;;;;;;;2.72;1.75;;;24.60;88.80;;;;;;5055446;28;20036;-69
2022/07/11 06:58:38;;;;;;;2.85;1.60;;;24.60;89.20;;;;;;5053805;28;20041;-71
2022/07/11 07:01:06;;;;;;;5.72;2.20;;;24.70;89.70;;;;;;5054337;28;20045;-68
2022/07/11 07:03:34;;;;;;;4.22;1.70;;;24.70;89.60;;;;;;5053836;28;20465;-68
2022/07/11 07:06:01;;;;;;;2.95;1.90;;;24.60;89.10;;;;;;5036324;28;20137;-65
2022/07/11 07:08:28;;;;;;;3.53;1.83;;;24.60;88.90;;;;;;5053798;28;20128;-66
2022/07/11 07:10:56;;;;;;;4.88;2.30;;;24.50;89.00;;;;;;5053558;28;20037;-66
2022/07/11 07:13:28;;;;;;;2.35;1.63;;;24.50;88.90;;;;;;5052542;28;20044;-67
2022/07/11 07:15:56;;;;;;;3.08;1.98;;;24.40;89.60;;;;;;5037064;28;20127;-67
2022/07/11 07:18:24;;;;;;;4.47;1.90;;;24.50;89.60;;;;;;5036122;28;20040;-67
2022/07/11 07:20:52;;;;;;;3.28;1.75;;;24.50;89.20;;;;;;5053535;28;20407;-67
2022/07/11 07:23:19;;;;;;;3.08;1.70;;;24.60;89.10;;;;;;5052736;28;20048;-67
2022/07/11 07:25:46;;;;;;;3.97;2.03;;;24.70;88.10;;;;;;5053961;28;20040;-67
2022/07/11 07:28:12;;;;;;;4.47;1.92;;;24.80;88.10;;;;;;5053599;28;20080;-66
2022/07/11 07:30:39;;;;;;;3.80;2.22;;;24.80;89.30;;;;;;5053129;28;20056;-65
2022/07/11 07:33:06;;;;;;;4.00;2.10;;;24.90;87.20;;;;;;5054360;28;20048;-69
2022/07/11 07:35:33;;;;;;;168.48;151.35;;;24.90;86.80;;;;;;5054120;28;20045;-66
2022/07/11 07:38:00;;;;;;;42.13;37.97;;;25.00;88.10;;;;;;5051844;28;20053;-67
2022/07/11 07:40:27;;;;;;;11.57;8.57;;;25.00;86.70;;;;;;5053343;28;20040;-69
2022/07/11 07:42:55;;;;;;;5.18;3.08;;;25.10;86.00;;;;;;5053448;28;20041;-69
2022/07/11 07:45:22;;;;;;;3.47;1.80;;;25.20;86.90;;;;;;5052556;28;20041;-68
2022/07/11 07:47:49;;;;;;;5.07;3.28;;;25.20;85.30;;;;;;5052923;28;20041;-69
2022/07/11 07:50:17;;;;;;;2.53;1.40;;;25.30;85.50;;;;;;5052282;28;20388;-69
2022/07/11 07:52:44;;;;;;;3.20;1.85;;;25.20;85.00;;;;;;5052415;28;20431;-69
2022/07/11 07:55:12;;;;;;;3.30;1.50;;;25.20;84.30;;;;;;5053169;28;20041;-69
2022/07/11 07:57:39;;;;;;;2.38;1.40;;;25.30;84.70;;;;;;5051865;28;20483;-69
2022/07/11 08:02:52;;;;;;;2.95;1.75;;;25.30;82.80;;;;;;5053995;28;20045;-68
2022/07/11 08:05:19;;;;;;;4.47;1.58;;;25.40;83.10;;;;;;5054079;28;20044;-68
2022/07/11 08:07:46;;;;;;;3.15;1.40;;;25.40;83.40;;;;;;5051732;28;20388;-69
2022/07/11 08:10:14;;;;;;;62.75;45.47;;;25.50;82.80;;;;;;5052088;28;20045;-67
2022/07/11 08:12:41;;;;;;;5.60;4.45;;;25.50;81.80;;;;;;5052147;28;20431;-68
2022/07/11 08:15:10;;;;;;;5.55;2.28;;;25.40;80.80;;;;;;5051798;28;20132;-69
2022/07/11 08:17:37;;;;;;;2.83;1.60;;;25.30;81.00;;;;;;5052141;28;20052;-65
2022/07/11 08:20:04;;;;;;;1.92;1.33;;;25.20;81.20;;;;;;5051987;28;20475;-69
2022/07/11 08:22:31;;;;;;;2.30;1.38;;;25.20;81.10;;;;;;5053515;28;20059;-73
2022/07/11 08:24:58;;;;;;;2.20;1.33;;;25.20;80.50;;;;;;5053539;28;20392;-74
2022/07/11 08:27:25;;;;;;;4.70;1.30;;;25.20;80.50;;;;;;5052053;28;20132;-70
2022/07/11 08:30:07;;;;;;;2.90;1.50;;;25.30;80.80;;;;;;5052442;28;20045;-71
2022/07/11 08:32:39;;;;;;;2.72;1.60;;;25.40;80.30;;;;;;5051638;28;20537;-76
2022/07/11 08:35:07;;;;;;;3.20;1.55;;;25.50;81.10;;;;;;5052135;28;20048;-73
2022/07/11 08:37:36;;;;;;;3.55;1.52;;;25.60;80.60;;;;;;5052131;28;20048;-72
2022/07/11 08:40:03;;;;;;;2.30;1.30;;;25.70;80.20;;;;;;5052706;28;20068;-72
2022/07/11 08:42:41;;;;;;;5.00;1.65;;;25.70;79.20;;;;;;5052418;28;20041;-72
2022/07/11 08:45:18;;;;;;;2.03;1.25;;;25.70;79.30;;;;;;5053735;28;20405;-73
2022/07/11 08:47:46;;;;;;;2.42;1.40;;;25.70;79.30;;;;;;5051976;28;20571;-72
2022/07/11 08:50:13;;;;;;;2.47;1.33;;;25.70;79.10;;;;;;5055303;28;20037;-72
2022/07/11 08:52:40;;;;;;;3.83;1.55;;;25.60;78.40;;;;;;5056258;28;20076;-72
2022/07/11 08:55:08;;;;;;;3.47;1.52;;;25.70;78.90;;;;;;5056457;28;20037;-72
2022/07/11 08:57:36;;;;;;;2.22;1.48;;;25.70;78.60;;;;;;5055595;28;20118;-72
2022/07/11 09:00:06;;;;;;;3.97;1.65;;;25.70;78.40;;;;;;5056476;28;20041;-71
2022/07/11 09:02:33;;;;;;;5.07;1.30;;;25.60;78.20;;;;;;5055215;28;20052;-72
2022/07/11 09:05:05;;;;;;;3.92;1.60;;;25.60;77.90;;;;;;5055630;28;20136;-72
2022/07/11 09:07:33;;;;;;;2.58;1.33;;;25.60;78.40;;;;;;5057179;28;20073;-72
2022/07/11 09:10:00;;;;;;;3.22;1.75;;;25.70;78.70;;;;;;5056617;28;20049;-73
2022/07/11 09:12:27;;;;;;;3.50;1.33;;;25.80;80.00;;;;;;5055099;28;20037;-72
2022/07/11 09:14:56;;;;;;;2.25;1.38;;;25.90;78.60;;;;;;5056180;28;20052;-72
2022/07/11 09:17:27;;;;;;;4.80;1.70;;;25.80;76.80;;;;;;5055284;28;20040;-72
2022/07/11 09:19:55;;;;;;;4.03;1.60;;;25.70;76.30;;;;;;5056049;28;20119;-72
2022/07/11 09:25:24;;;;;;;2.25;1.30;;;25.70;76.20;;;;;;5057190;28;20037;-72
2022/07/11 09:28:03;;;;;;;3.10;1.42;;;25.80;76.50;;;;;;5040211;28;20045;-71
2022/07/11 09:30:39;;;;;;;3.80;1.58;;;25.80;76.00;;;;;;5055630;28;20392;-72
2022/07/11 09:33:09;;;;;;;2.38;1.52;;;25.80;75.90;;;;;;5055982;28;20043;-72
2022/07/11 09:35:37;;;;;;;3.35;1.50;;;25.90;76.20;;;;;;5055205;28;20052;-72
2022/07/11 09:38:05;;;;;;;4.32;1.40;;;25.90;76.30;;;;;;5055516;28;20124;-73
2022/07/11 09:40:32;;;;;;;2.25;1.42;;;25.90;76.00;;;;;;5056685;28;20041;-72
2022/07/11 09:42:59;;;;;;;2.90;1.65;;;25.90;75.70;;;;;;5054860;28;20464;-72
2022/07/11 09:45:30;;;;;;;2.67;1.63;;;26.00;76.80;;;;;;5054904;28;20052;-73
2022/07/11 09:47:58;;;;;;;1.77;1.45;;;26.00;76.50;;;;;;5056592;28;20369;-72
2022/07/11 09:50:26;;;;;;;2.55;1.50;;;26.00;75.70;;;;;;5054697;28;20045;-72
2022/07/11 09:52:59;;;;;;;2.53;1.45;;;26.10;75.90;;;;;;5054371;28;20055;-72
2022/07/11 09:55:26;;;;;;;3.25;1.42;;;26.20;75.40;;;;;;5055684;28;20037;-72
2022/07/11 09:58:16;;;;;;;5.60;2.33;;;26.20;75.10;;;;;;5054806;28;20041;-71
2022/07/11 10:00:44;;;;;;;3.00;1.52;;;26.20;74.80;;;;;;5055325;28;20472;-71
2022/07/11 10:03:12;;;;;;;3.28;1.38;;;26.20;74.50;;;;;;5054263;28;20372;-71
2022/07/11 10:05:58;;;;;;;5.50;1.65;;;26.20;74.00;;;;;;5056664;28;20102;-72
2022/07/11 10:08:25;;;;;;;2.92;1.40;;;26.10;73.20;;;;;;5055566;28;20040;-72
2022/07/11 10:10:52;;;;;;;2.33;1.40;;;26.10;74.20;;;;;;5055185;28;20049;-72
2022/07/11 10:13:19;;;;;;;3.65;1.45;;;26.10;73.90;;;;;;5054411;28;20052;-71
2022/07/11 10:15:47;;;;;;;2.72;1.52;;;26.20;74.50;;;;;;5055059;28;20044;-72
2022/07/11 10:18:33;;;;;;;3.92;1.80;;;26.20;74.80;;;;;;5054320;28;20049;-71
2022/07/11 10:21:09;;;;;;;3.92;1.60;;;26.40;74.90;;;;;;5054713;28;20041;-73
2022/07/11 10:23:44;;;;;;;3.70;1.70;;;26.50;74.50;;;;;;5053722;28;20037;-71
2022/07/11 10:26:42;;;;;;;4.65;2.30;;;26.70;73.60;;;;;;5037759;28;20128;-71
2022/07/11 10:29:23;;;;;;;4.60;1.85;;;26.90;73.80;;;;;;5037276;28;20041;-71
2022/07/11 10:32:19;;;;;;;4.22;1.70;;;27.10;74.20;;;;;;5054412;28;20049;-71
2022/07/11 10:35:04;;;;;;;3.05;1.52;;;27.30;71.10;;;;;;5050308;28;20071;-71
2022/07/11 10:37:46;;;;;;;2.75;1.67;;;27.40;71.40;;;;;;5054999;28;20049;-72
2022/07/11 10:40:13;;;;;;;3.95;1.60;;;27.60;70.70;;;;;;5055169;28;20044;-72
2022/07/11 10:42:41;;;;;;;3.08;1.30;;;27.70;70.10;;;;;;5055328;28;20045;-71
2022/07/11 10:45:09;;;;;;;2.80;1.40;;;27.60;70.30;;;;;;5037862;28;20087;-71
2022/07/11 10:47:41;;;;;;;;;;;27.60;70.10;;;;;;5054899;28;20045;-65
2022/07/11 10:50:38;;;;;;;3.38;1.55;;;27.50;71.60;;;;;;5055230;28;19916;-68
2022/07/11 10:53:08;;;;;;;4.88;3.38;;;27.50;71.30;;;;;;5053762;28;20453;-74
2022/07/11 10:55:43;;;;;;;5.20;3.75;;;27.70;69.50;;;;;;5054555;28;20052;-75
2022/07/11 10:58:28;;;;;;;3.45;1.80;;;27.90;70.50;;;;;;5054197;28;20042;-70
2022/07/11 11:01:09;;;;;;;3.10;1.58;;;28.20;68.70;;;;;;5053749;28;20057;-68
2022/07/11 11:03:37;;;;;;;3.55;1.77;;;28.40;67.70;;;;;;5054332;28;20051;-70
2022/07/11 11:06:04;;;;;;;4.38;2.08;;;28.60;67.50;;;;;;5053004;28;20041;-68
2022/07/11 11:08:35;;;;;;;3.95;1.92;;;28.70;67.20;;;;;;5036874;28;20132;-69
2022/07/11 11:11:06;;;;;;;2.65;1.60;;;28.90;67.70;;;;;;5053483;28;20531;-69
2022/07/11 11:13:37;;;;;;;2.63;1.77;;;29.10;66.80;;;;;;5036634;28;20053;-66
2022/07/11 11:16:22;;;;;;;3.05;1.90;;;29.00;64.20;;;;;;5052798;28;20586;-65
2022/07/11 11:18:49;;;;;;;2.72;1.75;;;29.00;63.50;;;;;;5053128;28;20041;-67
2022/07/11 11:21:20;;;;;;;2.45;1.63;;;28.90;62.80;;;;;;5036066;28;20045;-66
2022/07/11 11:24:00;;;;;;;2.47;1.45;;;28.90;65.20;;;;;;5054371;28;20041;-71
2022/07/11 11:26:47;;;;;;;2.75;1.50;;;29.00;62.00;;;;;;5054780;28;20356;-71
2022/07/11 11:29:21;;;;;;;2.90;1.42;;;29.00;63.80;;;;;;5053663;28;20045;-68
2022/07/11 11:31:54;;;;;;;2.10;1.60;;;29.20;64.30;;;;;;5053485;28;20047;-67
2022/07/11 11:34:21;;;;;;;3.75;1.88;;;29.50;65.10;;;;;;5036621;28;20144;-66
2022/07/11 11:36:59;;;;;;;2.40;1.80;;;29.80;64.10;;;;;;5054017;28;20074;-67
2022/07/11 11:39:28;;;;;;;2.90;1.77;;;29.90;62.80;;;;;;5052294;28;20119;-68
2022/07/11 11:42:01;;;;;;;2.42;1.55;;;30.00;62.30;;;;;;5052241;28;20041;-66
2022/07/11 11:44:28;;;;;;;2.58;1.75;;;29.90;60.50;;;;;;5053056;28;20044;-68
2022/07/11 11:46:55;;;;;;;2.70;1.60;;;29.80;61.90;;;;;;5053758;28;20377;-67
2022/07/11 11:49:22;;;;;;;2.25;1.52;;;29.80;62.10;;;;;;5053012;28;20051;-66
2022/07/11 11:51:49;;;;;;;2.50;1.90;;;30.00;62.30;;;;;;5035969;28;20048;-68
2022/07/11 11:54:25;;;;;;;18.08;16.20;;;30.10;61.60;;;;;;5053517;28;20045;-68
2022/07/11 11:56:53;;;;;;;14.57;13.05;;;30.10;59.40;;;;;;5053194;28;20472;-70
2022/07/11 11:59:28;;;;;;;4.35;3.65;;;30.00;60.80;;;;;;5052747;28;20449;-71
2022/07/11 12:01:55;;;;;;;2.85;2.35;;;30.00;62.20;;;;;;5053170;28;20052;-68
2022/07/11 12:04:22;;;;;;;4.97;2.10;;;30.20;62.50;;;;;;5053983;28;20043;-68
2022/07/11 12:06:50;;;;;;;3.03;1.92;;;30.30;61.60;;;;;;5051964;28;20208;-67
2022/07/11 12:14:57;;;;;;;2.58;1.65;;;30.60;60.40;;;;;;5053381;28;20049;-68
2022/07/11 12:17:25;;;;;;;3.97;1.90;;;30.60;58.80;;;;;;5053953;28;20052;-70
2022/07/11 12:19:52;;;;;;;3.38;2.25;;;30.80;60.60;;;;;;5051866;28;20044;-69
2022/07/11 12:22:19;;;;;;;2.92;1.80;;;30.90;60.40;;;;;;5052064;28;20052;-69
2022/07/11 12:24:50;;;;;;;4.25;1.75;;;31.10;59.20;;;;;;5056065;28;20048;-70
2022/07/11 12:27:21;;;;;;;2.88;1.73;;;31.10;57.80;;;;;;5056996;28;20045;-68
2022/07/11 12:29:51;;;;;;;4.07;2.03;;;31.10;58.70;;;;;;5057114;28;20047;-68
2022/07/11 12:32:19;;;;;;;4.15;1.98;;;31.00;58.60;;;;;;5056104;28;20045;-68
2022/07/11 12:34:47;;;;;;;3.92;2.03;;;31.20;59.40;;;;;;5055915;28;20055;-68
2022/07/11 12:37:14;;;;;;;4.30;2.50;;;31.20;56.70;;;;;;5055752;28;20465;-68
2022/07/11 12:39:51;;;;;;;5.22;1.65;;;31.10;57.10;;;;;;5038990;28;20057;-68
2022/07/11 12:42:32;;;;;;;3.53;2.13;;;31.00;58.40;;;;;;5057116;28;20049;-68
2022/07/11 12:45:11;;;;;;;2.53;1.80;;;31.10;57.40;;;;;;5057778;28;20045;-68
2022/07/11 12:47:39;;;;;;;3.90;2.20;;;31.10;57.50;;;;;;5056684;28;20083;-68
2022/07/11 12:50:26;;;;;;;2.60;1.88;;;30.80;56.50;;;;;;5055312;28;20045;-68
2022/07/11 12:52:56;;;;;;;3.58;1.85;;;30.60;56.00;;;;;;5056597;28;20110;-68
2022/07/11 12:55:24;;;;;;;2.53;1.80;;;30.60;56.60;;;;;;5056826;28;20045;-67
2022/07/11 12:58:17;;;;;;;8.17;6.93;;;30.60;56.10;;;;;;5056798;28;20044;-68
2022/07/11 13:01:04;;;;;;;10.98;5.85;;;30.50;57.10;;;;;;5057592;28;20156;-67
2022/07/11 13:03:32;;;;;;;;;;;30.80;58.40;;;;;;5057157;28;20057;-68
2022/07/11 13:06:02;;;;;;;3.67;2.38;;;31.00;58.90;;;;;;5055105;28;19922;-67